createdAt,value
2019-05-14T00:01:26.373Z,2.50
2019-05-14T00:05:32.180Z,2.80
2019-05-14T00:09:36.564Z,2.57
2019-05-14T00:13:41.313Z,2.83
2019-05-14T00:17:45.587Z,2.70
2019-05-14T00:21:51.432Z,2.73
2019-05-14T00:25:55.682Z,3.10
2019-05-14T00:30:02.260Z,3.53
2019-05-14T00:34:05.756Z,2.87
2019-05-14T00:38:11.873Z,3.40
2019-05-14T00:42:15.892Z,2.90
2019-05-14T00:46:21.185Z,2.90
2019-05-14T00:50:25.519Z,3.00
2019-05-14T00:54:32.034Z,3.57
2019-05-14T00:58:35.590Z,3.40
2019-05-14T01:02:41.580Z,3.43
2019-05-14T01:06:45.659Z,4.20
2019-05-14T01:10:51.194Z,4.27
2019-05-14T01:15:07.100Z,3.40
2019-05-14T01:19:02.113Z,3.53
2019-05-14T01:23:06.543Z,3.70
2019-05-14T01:27:12.476Z,4.13
2019-05-14T01:31:16.629Z,3.50
2019-05-14T01:35:22.202Z,4.00
2019-05-14T01:39:26.960Z,4.27
2019-05-14T01:43:31.601Z,4.93
2019-05-14T01:47:35.913Z,4.27
2019-05-14T01:51:42.110Z,4.10
2019-05-14T01:55:45.943Z,4.10
2019-05-14T01:59:51.642Z,4.67
2019-05-14T02:03:56.181Z,4.10
2019-05-14T02:08:01.714Z,4.53
2019-05-14T02:12:06.174Z,4.73
2019-05-14T02:16:13.017Z,4.77
2019-05-14T02:20:16.283Z,4.70
2019-05-14T02:24:21.782Z,4.80
2019-05-14T02:28:26.219Z,4.90
2019-05-14T02:32:30.408Z,4.60
2019-05-14T02:36:34.621Z,4.67
2019-05-14T02:40:40.407Z,4.67
2019-05-14T02:44:44.740Z,5.13
2019-05-14T02:48:49.242Z,5.20
2019-05-14T02:52:53.634Z,5.30
2019-05-14T02:56:59.941Z,5.73
2019-05-14T03:01:03.748Z,5.40
2019-05-14T03:05:09.823Z,5.50
2019-05-14T03:09:13.979Z,5.33
2019-05-14T03:13:20.291Z,5.33
2019-05-14T03:17:24.024Z,5.77
2019-05-14T03:21:30.430Z,5.53
2019-05-14T03:25:34.128Z,6.10
2019-05-14T03:29:39.861Z,6.10
2019-05-14T03:33:44.971Z,5.67
2019-05-14T03:37:49.841Z,5.83
2019-05-14T03:41:54.330Z,6.00
2019-05-14T03:45:59.278Z,6.03
2019-05-14T03:50:04.065Z,6.37
2019-05-14T03:54:12.409Z,6.33
2019-05-14T03:58:14.108Z,5.40
2019-05-14T04:02:19.854Z,5.13
2019-05-14T04:06:29.920Z,5.07
2019-05-14T04:10:33.753Z,5.00
2019-05-14T04:14:41.077Z,4.17
2019-05-14T04:18:50.069Z,5.53
2019-05-14T04:22:54.225Z,4.87
2019-05-14T04:27:07.181Z,4.70
2019-05-14T04:31:09.534Z,5.50
2019-05-14T04:35:12.607Z,6.03
2019-05-14T04:39:19.306Z,5.50
2019-05-14T04:43:22.655Z,6.17
2019-05-14T04:47:33.491Z,6.50
2019-05-14T04:51:32.794Z,6.60
2019-05-14T04:55:39.892Z,6.80
2019-05-14T04:59:43.607Z,6.30
2019-05-14T05:03:50.359Z,7.00
2019-05-14T05:07:53.702Z,7.20
2019-05-14T05:11:59.823Z,6.90
2019-05-14T05:16:03.801Z,7.37
2019-05-14T05:20:09.828Z,6.97
2019-05-14T05:24:14.425Z,7.27
2019-05-14T05:28:19.119Z,7.10
2019-05-14T05:32:23.456Z,6.83
2019-05-14T05:36:29.036Z,7.33
2019-05-14T05:40:33.400Z,7.17
2019-05-14T05:44:39.386Z,6.60
2019-05-14T05:48:43.495Z,7.20
2019-05-14T05:52:49.778Z,7.20
2019-05-14T05:56:53.598Z,7.47
2019-05-14T06:00:59.129Z,6.73
2019-05-14T06:05:04.763Z,6.77
2019-05-14T06:09:09.062Z,6.57
2019-05-14T06:13:14.105Z,7.17
2019-05-14T06:17:19.084Z,6.70
2019-05-14T06:21:23.524Z,6.13
2019-05-14T06:25:31.222Z,6.43
2019-05-14T06:29:33.588Z,6.57
2019-05-14T06:33:39.424Z,6.80
2019-05-14T06:37:43.686Z,6.33
2019-05-14T06:41:49.080Z,6.43
2019-05-14T06:45:53.409Z,6.50
2019-05-14T06:49:59.241Z,6.20
2019-05-14T06:54:03.540Z,5.23
2019-05-14T06:58:09.232Z,5.60
2019-05-14T07:02:13.477Z,5.70
2019-05-14T07:06:18.665Z,5.30
2019-05-14T07:10:23.081Z,5.77
2019-05-14T07:14:28.263Z,5.73
2019-05-14T07:18:45.634Z,4.93
2019-05-14T07:22:39.126Z,4.97
2019-05-14T07:26:43.575Z,5.30
2019-05-14T07:30:48.533Z,4.47
2019-05-14T07:34:53.209Z,4.07
2019-05-14T07:39:00.042Z,3.90
2019-05-14T07:43:03.300Z,3.50
2019-05-14T07:47:08.256Z,3.37
2019-05-14T07:51:12.739Z,2.73
2019-05-14T07:55:18.516Z,3.63
2019-05-14T07:59:22.771Z,2.30
2019-05-14T08:03:28.576Z,2.57
2019-05-14T08:07:32.971Z,2.77
2019-05-14T08:11:38.728Z,2.50
2019-05-14T08:15:43.175Z,2.57
2019-05-14T08:19:49.151Z,2.10
2019-05-14T08:23:53.268Z,2.40
2019-05-14T08:27:58.676Z,2.17
2019-05-14T08:32:02.980Z,2.20
2019-05-14T08:36:08.948Z,2.07
2019-05-14T08:40:16.365Z,2.20
2019-05-14T08:44:20.254Z,2.30
2019-05-14T08:48:24.456Z,2.23
2019-05-14T08:52:28.983Z,2.57
2019-05-14T08:56:33.260Z,2.13
2019-05-14T09:00:38.765Z,2.60
2019-05-14T09:04:43.768Z,2.43
2019-05-14T09:08:49.537Z,2.20
2019-05-14T09:12:54.122Z,1.90
2019-05-14T09:16:59.967Z,1.70
2019-05-14T09:21:04.194Z,1.87
2019-05-14T09:25:08.565Z,1.73
2019-05-14T09:29:25.138Z,1.90
2019-05-14T09:33:19.438Z,1.70
2019-05-14T09:37:24.561Z,1.93
2019-05-14T09:41:31.040Z,1.53
2019-05-14T09:45:34.790Z,1.73
2019-05-14T09:49:39.131Z,1.50
2019-05-14T09:53:43.335Z,1.27
2019-05-14T09:57:49.146Z,1.37
2019-05-14T10:01:53.568Z,1.77
2019-05-14T10:05:59.026Z,1.93
2019-05-14T10:10:03.432Z,1.40
2019-05-14T10:14:08.069Z,1.80
2019-05-14T10:18:12.717Z,1.43
2019-05-14T10:22:19.660Z,1.70
2019-05-14T10:26:22.955Z,1.43
2019-05-14T10:30:28.563Z,1.63
2019-05-14T10:34:32.892Z,1.30
2019-05-14T10:38:38.739Z,1.20
2019-05-14T10:42:43.207Z,1.53
2019-05-14T10:46:47.514Z,1.30
2019-05-14T10:50:59.961Z,1.50
2019-05-14T10:54:59.080Z,1.60
2019-05-14T10:59:03.471Z,1.30
2019-05-14T11:03:07.723Z,1.17
2019-05-14T11:07:11.931Z,1.27
2019-05-14T11:11:18.349Z,1.30
2019-05-14T11:15:22.100Z,1.37
2019-05-14T11:19:28.159Z,1.37
2019-05-14T11:23:32.320Z,1.43
2019-05-14T11:27:38.607Z,1.20
2019-05-14T11:31:42.483Z,1.23
2019-05-14T11:35:46.924Z,1.30
2019-05-14T11:39:51.134Z,1.40
2019-05-14T11:43:55.379Z,1.90
2019-05-14T11:47:59.597Z,1.00
2019-05-14T11:52:07.780Z,1.07
2019-05-14T11:56:09.723Z,1.00
2019-05-14T12:00:14.616Z,1.10
2019-05-14T12:04:18.902Z,1.17
2019-05-14T12:08:23.142Z,1.20
2019-05-14T12:12:28.846Z,1.30
2019-05-14T12:16:33.433Z,1.30
2019-05-14T12:20:39.644Z,1.20
2019-05-14T12:24:43.504Z,1.00
2019-05-14T12:28:49.384Z,1.40
2019-05-14T12:32:53.684Z,1.50
2019-05-14T12:36:58.256Z,1.47
2019-05-14T12:41:02.652Z,1.10
2019-05-14T12:45:09.123Z,1.40
2019-05-14T12:49:13.552Z,1.33
2019-05-14T12:53:19.917Z,1.40
2019-05-14T12:57:23.944Z,1.10
2019-05-14T13:01:30.977Z,1.10
2019-05-14T13:05:35.184Z,1.33
2019-05-14T13:09:39.460Z,1.30
2019-05-14T13:13:43.674Z,1.10
2019-05-14T13:17:48.502Z,1.10
2019-05-14T13:22:08.769Z,1.13
2019-05-14T13:25:59.368Z,1.37
2019-05-14T13:30:04.060Z,0.93
2019-05-14T13:34:08.862Z,1.10
2019-05-14T13:38:14.496Z,0.80
2019-05-14T13:42:18.932Z,1.40
2019-05-14T13:46:23.240Z,1.10
2019-05-14T13:50:29.245Z,1.03
2019-05-14T13:54:33.459Z,0.90
2019-05-14T13:58:38.086Z,1.13
2019-05-14T14:02:42.298Z,1.00
2019-05-14T14:06:48.940Z,1.03
2019-05-14T14:10:53.950Z,1.40
2019-05-14T14:14:58.688Z,1.10
2019-05-14T14:19:03.905Z,1.00
2019-05-14T14:23:21.137Z,0.90
2019-05-14T14:27:14.320Z,1.17
2019-05-14T14:31:19.055Z,1.13
2019-05-14T14:35:24.728Z,1.30
2019-05-14T14:39:29.346Z,1.23
2019-05-14T14:43:33.580Z,1.40
2019-05-14T14:47:39.394Z,1.13
2019-05-14T14:51:45.226Z,1.10
2019-05-14T14:55:50.100Z,1.40
2019-05-14T14:59:56.291Z,0.90
2019-05-14T15:04:00.227Z,1.00
2019-05-14T15:08:04.461Z,1.40
2019-05-14T15:12:09.168Z,1.20
2019-05-14T15:16:14.128Z,1.20
2019-05-14T15:20:19.498Z,1.40
2019-05-14T15:24:23.983Z,1.37
2019-05-14T15:28:28.369Z,1.17
2019-05-14T15:32:32.635Z,1.10
2019-05-14T15:36:41.297Z,1.17
2019-05-14T15:40:42.675Z,1.33
2019-05-14T15:44:54.801Z,1.10
2019-05-14T15:48:52.871Z,1.50
2019-05-14T15:52:57.137Z,1.20
2019-05-14T15:57:01.426Z,0.90
2019-05-14T16:01:05.654Z,1.10
2019-05-14T16:05:10.424Z,1.20
2019-05-14T16:09:14.747Z,1.00
2019-05-14T16:13:21.139Z,1.30
2019-05-14T16:17:26.778Z,1.17
2019-05-14T16:21:30.786Z,1.20
2019-05-14T16:25:34.986Z,1.30
2019-05-14T16:29:45.703Z,1.20
2019-05-14T16:33:45.109Z,1.30
2019-05-14T16:37:49.416Z,1.10
2019-05-14T16:41:53.637Z,0.90
2019-05-14T16:45:59.737Z,0.93
2019-05-14T16:50:04.048Z,1.00
2019-05-14T16:54:08.280Z,0.90
2019-05-14T16:58:12.505Z,1.00
2019-05-14T17:02:19.028Z,0.90
2019-05-14T17:06:22.645Z,1.10
2019-05-14T17:10:28.588Z,1.10
2019-05-14T17:14:32.751Z,1.23
2019-05-14T17:18:36.968Z,1.70
2019-05-14T17:22:41.213Z,1.10
2019-05-14T17:26:45.447Z,1.07
2019-05-14T17:30:49.685Z,1.20
2019-05-14T17:34:53.920Z,1.03
2019-05-14T17:38:58.632Z,1.43
2019-05-14T17:43:03.108Z,1.13
2019-05-14T17:47:07.418Z,1.30
2019-05-14T17:51:11.660Z,1.10
2019-05-14T17:55:18.640Z,0.90
2019-05-14T17:59:22.208Z,1.10
2019-05-14T18:03:28.855Z,1.00
2019-05-14T18:07:32.333Z,1.07
2019-05-14T18:11:36.646Z,1.43
2019-05-14T18:15:40.866Z,1.30
2019-05-14T18:19:48.351Z,1.20
2019-05-14T18:23:52.381Z,1.17
2019-05-14T18:27:56.613Z,1.10
2019-05-14T18:32:01.675Z,1.10
2019-05-14T18:36:06.101Z,0.93
2019-05-14T18:40:10.577Z,1.30
2019-05-14T18:44:14.820Z,1.00
2019-05-14T18:48:19.540Z,1.33
2019-05-14T18:52:23.942Z,1.40
2019-05-14T18:56:29.239Z,1.20
2019-05-14T19:00:33.738Z,1.20
2019-05-14T19:04:38.682Z,1.53
2019-05-14T19:08:42.972Z,1.70
2019-05-14T19:12:49.955Z,2.00
2019-05-14T19:16:53.058Z,1.23
2019-05-14T19:20:59.297Z,1.23
2019-05-14T19:25:03.641Z,1.37
2019-05-14T19:29:08.671Z,1.03
2019-05-14T19:33:13.113Z,1.40
2019-05-14T19:37:19.072Z,1.20
2019-05-14T19:41:23.388Z,1.30
2019-05-14T19:45:28.170Z,1.10
2019-05-14T19:49:38.053Z,0.90
2019-05-14T19:53:41.591Z,1.00
2019-05-14T19:57:45.822Z,1.30
2019-05-14T20:01:50.055Z,1.20
2019-05-14T20:05:54.325Z,1.40
2019-05-14T20:09:58.861Z,1.37
2019-05-14T20:14:03.109Z,1.20
2019-05-14T20:18:08.909Z,1.20
2019-05-14T20:22:13.431Z,1.43
2019-05-14T20:26:18.170Z,1.30
2019-05-14T20:30:22.381Z,1.47
2019-05-14T20:34:28.548Z,1.60
2019-05-14T20:38:32.500Z,1.23
2019-05-14T20:42:39.169Z,1.37
2019-05-14T20:46:43.019Z,1.50
2019-05-14T20:50:47.247Z,1.10
2019-05-14T20:54:51.480Z,1.43
2019-05-14T20:58:55.708Z,1.37
2019-05-14T21:02:59.945Z,1.23
2019-05-14T21:07:04.222Z,1.20
2019-05-14T21:11:08.472Z,1.20
2019-05-14T21:15:12.699Z,1.20
2019-05-14T21:19:16.920Z,1.50
2019-05-14T21:23:21.164Z,1.40
2019-05-14T21:27:38.554Z,1.40
2019-05-14T21:31:31.387Z,1.27
2019-05-14T21:35:35.630Z,1.40
2019-05-14T21:39:41.041Z,1.50
2019-05-14T21:43:45.488Z,1.37
2019-05-14T21:47:49.782Z,1.67
2019-05-14T21:51:54.008Z,1.30
2019-05-14T21:55:58.654Z,1.53
2019-05-14T22:00:03.108Z,1.40
2019-05-14T22:04:11.167Z,1.30
2019-05-14T22:08:13.226Z,1.27
2019-05-14T22:12:20.359Z,1.30
2019-05-14T22:16:23.389Z,1.20
2019-05-14T22:20:29.015Z,1.20
2019-05-14T22:24:33.315Z,1.47
2019-05-14T22:28:37.663Z,1.50
2019-05-14T22:32:41.853Z,1.20
2019-05-14T22:36:48.375Z,1.67
2019-05-14T22:40:52.108Z,1.70
2019-05-14T22:44:58.346Z,1.60
2019-05-14T22:49:02.192Z,1.40
2019-05-14T22:53:06.380Z,1.30
2019-05-14T22:57:10.595Z,1.47
2019-05-14T23:01:15.383Z,1.30
2019-05-14T23:05:19.713Z,1.30
2019-05-14T23:09:23.933Z,1.40
2019-05-14T23:13:28.222Z,1.40
2019-05-14T23:17:32.435Z,1.77
2019-05-14T23:21:38.801Z,1.67
2019-05-14T23:25:42.514Z,1.27
2019-05-14T23:29:47.919Z,1.63
2019-05-14T23:33:52.211Z,1.30
2019-05-14T23:37:58.631Z,1.20
2019-05-14T23:42:02.779Z,1.40
2019-05-14T23:46:09.234Z,1.57
2019-05-14T23:50:13.047Z,1.33
2019-05-14T23:54:18.263Z,1.80
2019-05-14T23:58:22.552Z,1.70
